Weather at Freeway Airport

Public forecast

Using degrees Fahrenheit for public forecast. Weather courtesy of forecast.io.

Closest aviation weather report (METAR) to Freeway Airport

Closest report is College Park Airport, 7.4 nm (13.7 km) WNW.

2024/07/19 09:25 (retrieved 21 minutes ago)

KCGS 190925Z AUTO 01006KT 10SM OVC070 23/17 A3005 RMK AO2 T02280171

Closest aviation forecast (TAF) to Freeway Airport

Closest forecast is Joint Base Andrews, 9.0 nm (16.7 km) SSW.

2024/07/19 09:00 (retrieved 46 minutes ago)

TAF KADW 190900Z 1909/2015 02009KT 9999 FEW150 QNH2999INS BECMG 1913/1914 04010G15KT 9999 FEW120 QNH3004INS BECMG 1917/1918 07009KT 9999 SCT050 QNH3013INS BECMG 1923/1924 24006KT 9999 FEW080 SCT120 QNH3009INS BECMG 2006/2007 VRB06KT 9999 SCT030 BKN070 QNH3010INS BECMG 2011/2012 19006KT 9999 SCT070 QNH3011INS TX30/1921Z TN20/1910Z